CheckWX is a tool to help pilots better visualize weather data.  It is not intended as a substitute for an official pre-flight weather briefing.

07:13:09 UTC

OEGN TAF
Jizan Regional Airport
Jizan, Saudi Arabia
TAF OEGN 200500Z 2006/2015 28013KT 7000 SCT030 SCT090 PROB30 TEMPO 2010/2015 FEW035CB

Jun-20@
06:00 UTC

Jun-20 @ 06:00 UTC

Jun-20@
15:00 UTC

Jun-20 @ 15:00 UTC

TAF OEGN 200500Z 2006/2015 28013KT 7000 SCT030 SCT090
Wind
  • 280° at 13 KTS
Cloud Levels
  • Scattered at 3,000' AGL
  • Scattered at 9,000' AGL

Jun-20@
10:00 UTC

Jun-20 @ 10:00 UTC

Jun-20@
15:00 UTC

Jun-20 @ 15:00 UTC

PROB30 TEMPO 2010/2015 FEW035CB

Temporary - 30% Likelihood

Temporary - 30% Likelihood during this time.

Cloud Levels
  • Few at 3,500' AGL